createdAt,value
2022-08-22T00:00:47.427Z,18.29
2022-08-22T00:01:47.429Z,18.28
2022-08-22T00:02:45.269Z,20.93
2022-08-22T00:02:57.677Z,18.42
2022-08-22T00:02:58.276Z,19.13
2022-08-22T00:03:00.472Z,19.68
2022-08-22T00:03:04.493Z,19.71
2022-08-22T00:03:15.091Z,18.31
2022-08-22T00:03:48.419Z,18.31
2022-08-22T00:04:47.390Z,18.34
2022-08-22T00:05:47.419Z,18.36
2022-08-22T00:06:47.381Z,18.38
2022-08-22T00:07:47.336Z,18.39
2022-08-22T00:08:47.327Z,18.42
2022-08-22T00:09:47.321Z,18.41
2022-08-22T00:10:47.299Z,18.42
2022-08-22T00:11:47.285Z,18.42
2022-08-22T00:12:47.277Z,18.44
2022-08-22T00:13:47.269Z,18.44
2022-08-22T00:14:48.448Z,18.41
2022-08-22T00:15:47.239Z,18.35
2022-08-22T00:16:47.218Z,18.32
2022-08-22T00:17:47.207Z,18.28
2022-08-22T00:18:47.188Z,18.23
2022-08-22T00:19:47.187Z,18.17
2022-08-22T00:20:47.169Z,18.10
2022-08-22T00:21:47.156Z,18.05
2022-08-22T00:22:47.150Z,18.01
2022-08-22T00:23:47.142Z,17.98
2022-08-22T00:24:47.108Z,17.95
2022-08-22T00:25:47.097Z,17.96
2022-08-22T00:26:47.097Z,17.96
2022-08-22T00:27:47.087Z,17.98
2022-08-22T00:28:47.069Z,17.96
2022-08-22T00:29:47.088Z,17.95
2022-08-22T00:30:47.047Z,17.94
2022-08-22T00:31:47.028Z,17.91
2022-08-22T00:32:47.009Z,17.87
2022-08-22T00:33:47.008Z,17.84
2022-08-22T00:34:46.985Z,17.83
2022-08-22T00:35:46.977Z,17.84
2022-08-22T00:36:47.815Z,17.83
2022-08-22T00:37:46.936Z,17.87
2022-08-22T00:38:46.926Z,17.91
2022-08-22T00:39:46.946Z,17.91
2022-08-22T00:40:46.907Z,17.89
2022-08-22T00:41:46.895Z,17.89
2022-08-22T00:42:46.889Z,17.86
2022-08-22T00:43:46.865Z,17.84
2022-08-22T00:44:47.412Z,17.84
2022-08-22T00:45:46.870Z,17.84
2022-08-22T00:46:46.825Z,17.80
2022-08-22T00:47:46.816Z,17.83
2022-08-22T00:48:46.806Z,17.81
2022-08-22T00:49:46.785Z,17.80
2022-08-22T00:50:46.777Z,17.81
2022-08-22T00:51:46.766Z,17.80
2022-08-22T00:52:46.734Z,17.80
2022-08-22T00:53:46.745Z,17.79
2022-08-22T00:54:46.744Z,17.77
2022-08-22T00:55:46.725Z,17.74
2022-08-22T00:56:46.684Z,17.73
2022-08-22T00:57:46.686Z,17.70
2022-08-22T00:58:46.663Z,17.68
2022-08-22T00:59:46.657Z,17.65
2022-08-22T01:00:46.698Z,17.60
2022-08-22T01:01:46.635Z,17.60
2022-08-22T01:02:51.864Z,17.57
2022-08-22T01:03:47.620Z,17.55
2022-08-22T01:04:46.593Z,17.54
2022-08-22T01:05:46.596Z,17.54
2022-08-22T01:06:46.566Z,17.53
2022-08-22T01:07:46.555Z,17.49
2022-08-22T01:08:46.567Z,17.49
2022-08-22T01:09:46.566Z,17.47
2022-08-22T01:10:46.526Z,17.47
2022-08-22T01:11:46.497Z,17.47
2022-08-22T01:12:46.498Z,17.47
2022-08-22T01:13:46.481Z,17.49
2022-08-22T01:14:46.473Z,17.49
2022-08-22T01:15:46.454Z,17.49
2022-08-22T01:16:46.443Z,17.54
2022-08-22T01:17:46.433Z,17.57
2022-08-22T01:18:46.420Z,17.57
2022-08-22T01:19:46.402Z,17.58
2022-08-22T01:20:46.392Z,17.60
2022-08-22T01:21:46.394Z,17.58
2022-08-22T01:22:46.351Z,17.57
2022-08-22T01:23:46.373Z,17.57
2022-08-22T01:24:46.333Z,17.53
2022-08-22T01:25:46.333Z,17.54
2022-08-22T01:26:46.303Z,17.54
2022-08-22T01:27:46.299Z,17.54
2022-08-22T01:28:46.303Z,17.53
2022-08-22T01:29:46.281Z,17.49
2022-08-22T01:30:46.267Z,17.49
2022-08-22T01:31:46.247Z,17.47
2022-08-22T01:32:46.222Z,17.46
2022-08-22T01:33:46.214Z,17.47
2022-08-22T01:34:46.212Z,17.46
2022-08-22T01:35:46.193Z,17.47
2022-08-22T01:36:46.181Z,17.45
2022-08-22T01:37:46.171Z,17.43
2022-08-22T01:38:46.160Z,17.40
2022-08-22T01:39:46.187Z,17.39
2022-08-22T01:40:54.110Z,17.38
2022-08-22T01:41:47.111Z,17.36
2022-08-22T01:42:46.108Z,17.38
2022-08-22T01:43:59.948Z,17.35
2022-08-22T01:44:47.090Z,17.33
2022-08-22T01:45:46.075Z,17.35
2022-08-22T01:46:46.043Z,17.38
2022-08-22T01:47:46.040Z,17.36
2022-08-22T01:48:46.020Z,17.39
2022-08-22T01:49:46.030Z,17.36
2022-08-22T01:50:45.990Z,17.32
2022-08-22T01:51:45.980Z,17.30
2022-08-22T01:52:45.972Z,17.28
2022-08-22T01:53:45.975Z,17.27
2022-08-22T01:54:45.939Z,17.25
2022-08-22T01:55:45.941Z,17.30
2022-08-22T01:56:45.916Z,17.32
2022-08-22T01:57:45.908Z,17.32
2022-08-22T01:58:45.891Z,17.30
2022-08-22T01:59:45.895Z,17.32
2022-08-22T02:00:45.913Z,17.32
2022-08-22T02:01:45.871Z,17.28
2022-08-22T02:02:45.835Z,17.27
2022-08-22T02:03:45.825Z,17.25
2022-08-22T02:04:45.877Z,17.24
2022-08-22T02:05:45.806Z,17.25
2022-08-22T02:06:45.789Z,17.27
2022-08-22T02:07:45.779Z,17.28
2022-08-22T02:08:45.757Z,17.30
2022-08-22T02:09:45.778Z,17.30
2022-08-22T02:10:45.743Z,17.27
2022-08-22T02:11:45.720Z,17.27
2022-08-22T02:12:45.708Z,17.28
2022-08-22T02:13:45.715Z,17.27
2022-08-22T02:14:45.687Z,17.24
2022-08-22T02:15:45.699Z,17.21
2022-08-22T02:16:45.657Z,17.20
2022-08-22T02:17:45.667Z,17.17
2022-08-22T02:18:45.636Z,17.17
2022-08-22T02:19:45.629Z,17.15
2022-08-22T02:20:45.625Z,17.15
2022-08-22T02:21:45.599Z,17.15
2022-08-22T02:22:45.710Z,17.14
2022-08-22T02:23:45.581Z,17.14
2022-08-22T02:24:45.575Z,17.14
2022-08-22T02:25:45.595Z,17.14
2022-08-22T02:26:45.555Z,17.17
2022-08-22T02:27:45.517Z,17.17
2022-08-22T02:28:56.440Z,17.14
2022-08-22T02:29:46.485Z,17.14
2022-08-22T02:30:45.476Z,17.14
2022-08-22T02:31:45.468Z,17.17
2022-08-22T02:32:45.495Z,17.15
2022-08-22T02:33:45.544Z,17.17
2022-08-22T02:34:45.425Z,17.17
2022-08-22T02:35:45.557Z,17.14
2022-08-22T02:36:45.404Z,17.14
2022-08-22T02:37:45.404Z,17.14
2022-08-22T02:38:45.378Z,17.14
2022-08-22T02:39:45.446Z,17.14
2022-08-22T02:40:45.396Z,17.12
2022-08-22T02:41:45.335Z,17.10
2022-08-22T02:42:45.345Z,17.07
2022-08-22T02:43:45.317Z,17.06
2022-08-22T02:44:45.291Z,17.03
2022-08-22T02:45:45.314Z,17.03
2022-08-22T02:46:45.275Z,17.02
2022-08-22T02:47:45.263Z,17.02
2022-08-22T02:48:45.241Z,17.02
2022-08-22T02:49:45.225Z,17.05
2022-08-22T02:50:45.227Z,17.06
2022-08-22T02:51:45.199Z,17.09
2022-08-22T02:52:45.194Z,17.10
2022-08-22T02:53:45.163Z,17.14
2022-08-22T02:54:45.194Z,17.12
2022-08-22T02:55:45.154Z,17.10
2022-08-22T02:56:45.144Z,17.09
2022-08-22T02:57:45.154Z,17.06
2022-08-22T02:58:45.119Z,17.05
2022-08-22T02:59:45.093Z,17.03
2022-08-22T03:00:45.220Z,17.03
2022-08-22T03:01:45.073Z,17.05
2022-08-22T03:02:45.123Z,17.03
2022-08-22T03:03:45.050Z,17.00
2022-08-22T03:04:45.030Z,16.99
2022-08-22T03:05:45.023Z,16.95
2022-08-22T03:06:45.012Z,16.98
2022-08-22T03:07:44.992Z,16.96
2022-08-22T03:08:50.941Z,16.99
2022-08-22T03:09:45.960Z,17.00
2022-08-22T03:10:44.956Z,17.00
2022-08-22T03:11:44.967Z,17.02
2022-08-22T03:12:44.940Z,17.06
2022-08-22T03:13:44.960Z,17.09
2022-08-22T03:14:45.234Z,17.09
2022-08-22T03:15:49.542Z,17.10
2022-08-22T03:16:44.885Z,17.10
2022-08-22T03:17:44.867Z,17.10
2022-08-22T03:18:44.864Z,17.07
2022-08-22T03:19:44.839Z,17.05
2022-08-22T03:20:44.842Z,17.02
2022-08-22T03:21:44.869Z,17.00
2022-08-22T03:22:44.801Z,16.96
2022-08-22T03:23:44.782Z,16.92
2022-08-22T03:24:44.776Z,16.88
2022-08-22T03:25:44.751Z,16.85
2022-08-22T03:26:44.749Z,16.85
2022-08-22T03:27:49.478Z,16.85
2022-08-22T03:28:52.648Z,16.91
2022-08-22T03:29:45.708Z,16.96
2022-08-22T03:30:44.690Z,17.00
2022-08-22T03:31:44.681Z,17.03
2022-08-22T03:32:44.671Z,17.02
2022-08-22T03:33:44.646Z,17.02
2022-08-22T03:34:44.659Z,17.02
2022-08-22T03:35:44.620Z,17.02
2022-08-22T03:36:44.629Z,17.03
2022-08-22T03:37:44.589Z,17.05
2022-08-22T03:38:44.585Z,17.07
2022-08-22T03:40:40.578Z,17.14
2022-08-22T03:41:40.345Z,17.07
2022-08-22T03:42:40.325Z,17.07
2022-08-22T03:43:40.304Z,17.05
2022-08-22T03:44:40.333Z,17.05
2022-08-22T03:45:40.286Z,17.05
2022-08-22T03:46:40.267Z,17.09
2022-08-22T03:47:40.257Z,17.17
2022-08-22T03:48:40.239Z,17.22
2022-08-22T03:49:40.236Z,17.22
2022-08-22T03:50:40.215Z,17.27
2022-08-22T03:51:40.224Z,17.27
2022-08-22T03:52:40.192Z,17.27
2022-08-22T03:53:40.188Z,17.28
2022-08-22T03:54:40.157Z,17.30
2022-08-22T03:55:40.176Z,17.33
2022-08-22T03:56:40.135Z,17.35
2022-08-22T03:57:40.130Z,17.33
2022-08-22T03:58:40.126Z,17.35
2022-08-22T03:59:42.706Z,17.35
2022-08-22T04:00:40.105Z,17.32
2022-08-22T04:01:40.084Z,17.32
2022-08-22T04:02:43.561Z,17.28
2022-08-22T04:03:40.045Z,17.25
2022-08-22T04:04:40.055Z,17.22
2022-08-22T04:05:40.015Z,17.21
2022-08-22T04:06:40.010Z,17.24
2022-08-22T04:07:41.031Z,17.28
2022-08-22T04:08:43.950Z,17.33
2022-08-22T04:09:39.962Z,17.35
2022-08-22T04:10:39.945Z,17.33
2022-08-22T04:11:39.944Z,17.35
2022-08-22T04:12:39.923Z,17.32
2022-08-22T04:13:39.928Z,17.30
2022-08-22T04:14:39.892Z,17.28
2022-08-22T04:15:39.907Z,17.24
2022-08-22T04:16:39.877Z,17.24
2022-08-22T04:17:39.862Z,17.28
2022-08-22T04:18:39.882Z,17.35
2022-08-22T04:19:39.840Z,17.36
2022-08-22T04:20:39.821Z,17.38
2022-08-22T04:21:39.811Z,17.36
2022-08-22T04:22:39.804Z,17.38
2022-08-22T04:23:41.242Z,17.36
2022-08-22T04:24:39.922Z,17.35
2022-08-22T04:25:39.798Z,17.32
2022-08-22T04:26:39.752Z,17.35
2022-08-22T04:27:39.740Z,17.33
2022-08-22T04:28:39.721Z,17.36
2022-08-22T04:29:39.718Z,17.35
2022-08-22T04:30:39.704Z,17.35
2022-08-22T04:31:39.692Z,17.33
2022-08-22T04:32:39.672Z,17.36
2022-08-22T04:33:39.692Z,17.38
2022-08-22T04:34:39.681Z,17.40
2022-08-22T04:35:39.662Z,17.42
2022-08-22T04:36:39.982Z,17.40
2022-08-22T04:37:39.713Z,17.45
2022-08-22T04:38:39.614Z,17.49
2022-08-22T04:39:39.645Z,17.54
2022-08-22T04:40:39.572Z,17.54
2022-08-22T04:41:39.581Z,17.54
2022-08-22T04:42:39.571Z,17.58
2022-08-22T04:43:39.590Z,17.58
2022-08-22T04:44:39.522Z,17.57
2022-08-22T04:45:39.552Z,17.58
2022-08-22T04:46:39.507Z,17.66
2022-08-22T04:47:39.509Z,17.77
2022-08-22T04:48:39.505Z,17.86
2022-08-22T04:49:39.459Z,17.91
2022-08-22T04:50:42.975Z,17.92
2022-08-22T04:51:39.451Z,17.96
2022-08-22T04:52:39.429Z,17.95
2022-08-22T04:53:39.441Z,17.94
2022-08-22T04:54:39.407Z,17.92
2022-08-22T04:55:39.389Z,17.86
2022-08-22T04:56:39.369Z,17.86
2022-08-22T04:57:39.359Z,17.86
2022-08-22T04:58:40.067Z,17.94
2022-08-22T04:59:39.319Z,18.01
2022-08-22T05:00:39.308Z,18.01
2022-08-22T05:01:39.350Z,18.05
2022-08-22T05:02:39.301Z,18.05
2022-08-22T05:03:44.364Z,18.07
2022-08-22T05:04:40.276Z,18.11
2022-08-22T05:05:39.277Z,18.14
2022-08-22T05:06:39.258Z,18.14
2022-08-22T05:07:39.228Z,18.10
2022-08-22T05:08:39.585Z,18.09
2022-08-22T05:09:39.199Z,18.09
2022-08-22T05:10:39.180Z,18.10
2022-08-22T05:11:39.185Z,18.11
2022-08-22T05:12:39.153Z,18.19
2022-08-22T05:13:39.155Z,18.19
2022-08-22T05:14:39.126Z,18.28
2022-08-22T05:15:39.132Z,18.41
2022-08-22T05:16:39.107Z,18.42
2022-08-22T05:17:39.097Z,18.36
2022-08-22T05:18:39.609Z,18.38
2022-08-22T05:19:40.051Z,18.44
2022-08-22T05:20:39.054Z,18.47
2022-08-22T05:21:39.045Z,18.51
2022-08-22T05:22:39.038Z,18.54
2022-08-22T05:23:39.021Z,18.64
2022-08-22T05:24:39.014Z,18.62
2022-08-22T05:25:39.005Z,18.62
2022-08-22T05:26:38.984Z,18.60
2022-08-22T05:27:38.976Z,18.64
2022-08-22T05:28:38.952Z,18.68
2022-08-22T05:29:38.970Z,18.76
2022-08-22T05:30:38.936Z,18.76
2022-08-22T05:31:38.927Z,18.74
2022-08-22T05:32:38.914Z,18.72
2022-08-22T05:33:38.906Z,18.76
2022-08-22T05:34:38.873Z,18.79
2022-08-22T05:35:38.935Z,18.78
2022-08-22T05:36:38.864Z,18.78
2022-08-22T05:37:38.853Z,18.74
2022-08-22T05:38:38.834Z,18.69
2022-08-22T05:39:38.873Z,18.68
2022-08-22T05:40:38.792Z,18.65
2022-08-22T05:41:38.843Z,18.65
2022-08-22T05:42:38.769Z,18.68
2022-08-22T05:43:38.785Z,18.74
2022-08-22T05:44:38.749Z,18.79
2022-08-22T05:45:38.743Z,18.84
2022-08-22T05:46:38.731Z,18.84
2022-08-22T05:47:38.714Z,18.89
2022-08-22T05:48:38.693Z,18.90
2022-08-22T05:49:38.693Z,18.91
2022-08-22T05:50:38.664Z,18.93
2022-08-22T05:51:38.693Z,18.94
2022-08-22T05:52:38.643Z,18.97
2022-08-22T05:53:38.673Z,18.97
2022-08-22T05:54:38.622Z,19.01
2022-08-22T05:55:38.621Z,19.01
2022-08-22T05:56:39.172Z,19.05
2022-08-22T05:57:38.587Z,19.09
2022-08-22T05:58:38.561Z,19.09
2022-08-22T05:59:38.598Z,19.12
2022-08-22T06:00:38.576Z,19.15
2022-08-22T06:01:38.616Z,19.20
2022-08-22T06:02:38.557Z,19.23
2022-08-22T06:03:38.504Z,19.25
2022-08-22T06:04:38.499Z,19.31
2022-08-22T06:05:38.484Z,19.35
2022-08-22T06:06:38.463Z,19.34
2022-08-22T06:07:38.463Z,19.34
2022-08-22T06:08:38.451Z,19.34
2022-08-22T06:09:38.433Z,19.35
2022-08-22T06:10:38.433Z,19.39
2022-08-22T06:11:38.432Z,19.45
2022-08-22T06:12:38.467Z,19.52
2022-08-22T06:13:41.203Z,19.58
2022-08-22T06:14:38.365Z,19.61
2022-08-22T06:15:38.340Z,19.62
2022-08-22T06:16:38.389Z,19.64
2022-08-22T06:17:39.328Z,19.67
2022-08-22T06:18:38.325Z,19.75
2022-08-22T06:19:38.291Z,19.80
2022-08-22T06:20:38.304Z,19.86
2022-08-22T06:21:39.259Z,19.95
2022-08-22T06:22:38.269Z,20.00
2022-08-22T06:23:38.262Z,20.01
2022-08-22T06:24:38.233Z,20.01
2022-08-22T06:25:38.216Z,20.01
2022-08-22T06:26:38.211Z,20.04
2022-08-22T06:27:38.191Z,20.02
2022-08-22T06:28:38.170Z,20.04
2022-08-22T06:29:39.164Z,20.08
2022-08-22T06:30:38.173Z,20.15
2022-08-22T06:31:38.152Z,20.20
2022-08-22T06:32:59.082Z,20.27
2022-08-22T06:33:39.113Z,20.30
2022-08-22T06:34:38.130Z,20.35
2022-08-22T06:35:38.192Z,20.37
2022-08-22T06:36:38.158Z,20.42
2022-08-22T06:37:38.321Z,20.46
2022-08-22T06:38:38.066Z,20.50
2022-08-22T06:39:38.106Z,20.54
2022-08-22T06:40:38.021Z,20.58
2022-08-22T06:41:38.029Z,20.61
2022-08-22T06:42:38.019Z,20.64
2022-08-22T06:43:37.987Z,20.71
2022-08-22T06:44:37.980Z,20.72
2022-08-22T06:45:37.968Z,20.73
2022-08-22T06:46:37.976Z,20.73
2022-08-22T06:47:37.970Z,20.75
2022-08-22T06:48:38.095Z,20.79
2022-08-22T06:49:37.907Z,20.82
2022-08-22T06:50:37.911Z,20.81
2022-08-22T06:51:37.890Z,20.82
2022-08-22T06:52:37.894Z,20.88
2022-08-22T06:53:37.858Z,20.88
2022-08-22T06:54:37.850Z,20.88
2022-08-22T06:55:37.835Z,20.87
2022-08-22T06:56:37.829Z,20.87
2022-08-22T06:57:37.815Z,20.91
2022-08-22T06:58:37.828Z,20.94
2022-08-22T06:59:37.787Z,21.00
2022-08-22T07:00:37.810Z,21.05
2022-08-22T07:01:37.801Z,21.13
2022-08-22T07:02:37.791Z,21.18
2022-08-22T07:03:37.753Z,21.21
2022-08-22T07:04:37.727Z,21.28
2022-08-22T07:05:37.708Z,21.31
2022-08-22T07:06:37.697Z,21.37
2022-08-22T07:07:37.690Z,21.45
2022-08-22T07:08:39.255Z,21.46
2022-08-22T07:09:37.652Z,21.46
2022-08-22T07:10:37.639Z,21.48
2022-08-22T07:11:37.622Z,21.49
2022-08-22T07:12:37.715Z,21.55
2022-08-22T07:13:37.609Z,21.56
2022-08-22T07:14:37.590Z,21.56
2022-08-22T07:15:37.601Z,21.53
2022-08-22T07:16:37.583Z,21.51
2022-08-22T07:17:40.573Z,21.56
2022-08-22T07:18:37.535Z,21.61
2022-08-22T07:19:37.519Z,21.67
2022-08-22T07:20:37.504Z,21.71
2022-08-22T07:21:37.518Z,21.73
2022-08-22T07:22:37.558Z,21.71
2022-08-22T07:23:37.468Z,21.73
2022-08-22T07:24:37.471Z,21.70
2022-08-22T07:25:37.459Z,21.71
2022-08-22T07:26:37.497Z,21.74
2022-08-22T07:27:37.630Z,21.75
2022-08-22T07:28:51.566Z,21.74
2022-08-22T07:29:38.401Z,21.74
2022-08-22T07:30:37.388Z,21.77
2022-08-22T07:31:37.382Z,21.81
2022-08-22T07:32:37.364Z,21.79
2022-08-22T07:33:37.348Z,21.81
2022-08-22T07:34:37.337Z,21.85
2022-08-22T07:35:37.319Z,21.89
2022-08-22T07:36:37.358Z,21.93
2022-08-22T07:37:37.511Z,21.98
2022-08-22T07:38:37.392Z,22.04
2022-08-22T07:39:37.445Z,22.11
2022-08-22T07:40:37.294Z,22.12
2022-08-22T07:41:37.258Z,22.15
2022-08-22T07:42:37.262Z,22.20
2022-08-22T07:43:37.328Z,22.26
2022-08-22T07:44:37.207Z,22.31
2022-08-22T07:45:37.198Z,22.36
2022-08-22T07:46:37.200Z,22.30
2022-08-22T07:47:37.182Z,22.33
2022-08-22T07:48:53.437Z,22.35
2022-08-22T07:49:38.133Z,22.38
2022-08-22T07:50:37.148Z,22.41
2022-08-22T07:51:37.134Z,22.45
2022-08-22T07:52:37.105Z,22.52
2022-08-22T07:53:37.176Z,22.56
2022-08-22T07:54:37.074Z,22.57
2022-08-22T07:55:41.066Z,22.60
2022-08-22T07:56:38.062Z,22.60
2022-08-22T07:57:37.060Z,22.59
2022-08-22T07:58:37.028Z,22.60
2022-08-22T07:59:37.020Z,22.57
2022-08-22T08:00:37.018Z,22.59
2022-08-22T08:01:37.032Z,22.64
2022-08-22T08:02:37.049Z,22.70
2022-08-22T08:03:36.987Z,22.75
2022-08-22T08:04:40.397Z,22.76
2022-08-22T08:05:36.943Z,22.84
2022-08-22T08:06:36.958Z,22.84
2022-08-22T08:07:36.916Z,22.81
2022-08-22T08:08:36.942Z,22.82
2022-08-22T08:09:36.909Z,22.79
2022-08-22T08:10:36.878Z,22.79
2022-08-22T08:11:36.875Z,22.84
2022-08-22T08:12:36.843Z,22.89
2022-08-22T08:13:36.848Z,22.84
2022-08-22T08:14:36.830Z,22.84
2022-08-22T08:15:36.807Z,22.86
2022-08-22T08:16:36.799Z,22.93
2022-08-22T08:17:36.780Z,22.93
2022-08-22T08:18:36.787Z,23.01
2022-08-22T08:19:36.787Z,23.01
2022-08-22T08:20:36.755Z,23.01
2022-08-22T08:21:36.769Z,23.00
2022-08-22T08:22:36.739Z,23.06
2022-08-22T08:23:39.444Z,23.14
2022-08-22T08:24:41.733Z,23.15
2022-08-22T08:25:37.701Z,23.16
2022-08-22T08:26:36.678Z,23.19
2022-08-22T08:27:36.667Z,23.18
2022-08-22T08:28:36.718Z,23.19
2022-08-22T08:29:36.625Z,23.19
2022-08-22T08:30:36.693Z,23.22
2022-08-22T08:31:36.627Z,23.23
2022-08-22T08:32:36.614Z,23.25
2022-08-22T08:33:36.639Z,23.34
2022-08-22T08:34:36.570Z,23.38
2022-08-22T08:35:42.239Z,23.34
2022-08-22T08:36:37.549Z,23.37
2022-08-22T08:37:36.541Z,23.42
2022-08-22T08:38:36.558Z,23.54
2022-08-22T08:39:36.524Z,23.59
2022-08-22T08:40:36.486Z,23.60
2022-08-22T08:41:36.478Z,23.47
2022-08-22T08:42:36.505Z,23.41
2022-08-22T08:43:36.480Z,23.44
2022-08-22T08:44:36.493Z,23.34
2022-08-22T08:45:36.480Z,23.35
2022-08-22T08:46:36.489Z,23.32
2022-08-22T08:47:36.436Z,23.31
2022-08-22T08:48:36.397Z,23.29
2022-08-22T08:49:42.105Z,23.22
2022-08-22T08:50:37.430Z,23.21
2022-08-22T08:51:36.455Z,23.23
2022-08-22T08:52:36.336Z,23.23
2022-08-22T08:53:36.336Z,23.25
2022-08-22T08:54:36.355Z,23.32
2022-08-22T08:55:36.314Z,23.37
2022-08-22T08:56:36.310Z,23.42
2022-08-22T08:57:36.291Z,23.41
2022-08-22T08:58:36.283Z,23.39
2022-08-22T08:59:36.255Z,23.42
2022-08-22T09:00:37.256Z,23.39
2022-08-22T09:01:36.314Z,23.39
2022-08-22T09:02:36.814Z,23.37
2022-08-22T09:03:37.231Z,23.41
2022-08-22T09:04:36.204Z,23.38
2022-08-22T09:05:36.192Z,23.42
2022-08-22T09:06:36.190Z,23.49
2022-08-22T09:07:36.376Z,23.41
2022-08-22T09:08:36.149Z,23.41
2022-08-22T09:09:36.150Z,23.44
2022-08-22T09:10:36.126Z,23.45
2022-08-22T09:11:36.164Z,23.49
2022-08-22T09:12:36.147Z,23.50
2022-08-22T09:13:40.926Z,23.52
2022-08-22T09:14:37.087Z,23.45
2022-08-22T09:15:37.586Z,23.47
2022-08-22T09:16:36.049Z,23.42
2022-08-22T09:17:36.017Z,23.45
2022-08-22T09:18:36.001Z,23.53
2022-08-22T09:19:36.043Z,23.72
2022-08-22T09:20:36.121Z,23.81
2022-08-22T09:21:35.965Z,23.84
2022-08-22T09:22:50.508Z,23.86
2022-08-22T09:23:37.005Z,23.86
2022-08-22T09:24:35.949Z,23.89
2022-08-22T09:25:38.620Z,23.96
2022-08-22T09:26:35.976Z,24.00
2022-08-22T09:27:35.897Z,23.99
2022-08-22T09:28:35.895Z,24.04
2022-08-22T09:29:35.878Z,23.96
2022-08-22T09:30:36.875Z,23.93
2022-08-22T09:31:48.106Z,23.92
2022-08-22T09:32:36.846Z,23.78
2022-08-22T09:33:35.836Z,23.77
2022-08-22T09:34:35.808Z,23.71
2022-08-22T09:35:35.839Z,23.71
2022-08-22T09:36:35.787Z,23.78
2022-08-22T09:37:35.798Z,23.82
2022-08-22T09:38:35.869Z,23.93
2022-08-22T09:39:35.759Z,23.96
2022-08-22T09:40:35.804Z,23.89
2022-08-22T09:41:35.743Z,23.94
2022-08-22T09:42:35.727Z,23.97
2022-08-22T09:43:35.711Z,23.99
2022-08-22T09:44:39.734Z,24.04
2022-08-22T09:45:35.676Z,24.11
2022-08-22T09:46:36.927Z,24.09
2022-08-22T09:47:39.290Z,24.12
2022-08-22T09:48:35.805Z,24.15
2022-08-22T09:49:35.625Z,24.08
2022-08-22T09:50:35.616Z,24.06
2022-08-22T09:51:35.615Z,24.11
2022-08-22T09:52:36.803Z,24.12
2022-08-22T09:53:35.844Z,24.12
2022-08-22T09:54:35.566Z,24.05
2022-08-22T09:55:35.873Z,24.05
2022-08-22T09:56:37.521Z,24.11
2022-08-22T09:57:35.538Z,24.19
2022-08-22T09:58:38.941Z,24.31
2022-08-22T09:59:36.554Z,24.41
2022-08-22T10:00:35.521Z,24.27
2022-08-22T10:01:35.504Z,24.26
2022-08-22T10:02:36.054Z,24.33
2022-08-22T10:03:35.467Z,24.30
2022-08-22T10:04:35.435Z,24.15
2022-08-22T10:05:44.102Z,24.16
2022-08-22T10:06:36.417Z,24.21
2022-08-22T10:07:35.423Z,24.15
2022-08-22T10:08:35.390Z,24.06
2022-08-22T10:09:35.372Z,24.06
2022-08-22T10:10:35.356Z,24.14
2022-08-22T10:11:38.798Z,24.21
2022-08-22T10:12:36.665Z,24.24
2022-08-22T10:13:35.342Z,24.29
2022-08-22T10:14:35.316Z,24.29
2022-08-22T10:15:35.295Z,24.19
2022-08-22T10:16:35.307Z,24.18
2022-08-22T10:17:35.267Z,24.21
2022-08-22T10:18:36.247Z,24.24
2022-08-22T10:19:35.450Z,24.16
2022-08-22T10:20:35.231Z,24.06
2022-08-22T10:21:35.247Z,24.02
2022-08-22T10:22:35.203Z,24.05
2022-08-22T10:23:35.198Z,24.11
2022-08-22T10:24:36.042Z,24.26
2022-08-22T10:25:36.167Z,24.33
2022-08-22T10:26:38.735Z,24.31
2022-08-22T10:27:35.226Z,24.26
2022-08-22T10:28:35.201Z,24.14
2022-08-22T10:29:35.107Z,24.15
2022-08-22T10:30:35.114Z,24.21
2022-08-22T10:31:35.088Z,24.23
2022-08-22T10:32:36.077Z,24.27
2022-08-22T10:33:35.153Z,24.33
2022-08-22T10:34:35.048Z,24.42
2022-08-22T10:35:35.046Z,24.59
2022-08-22T10:36:35.017Z,24.59
2022-08-22T10:37:35.027Z,24.63
2022-08-22T10:38:36.116Z,24.63
2022-08-22T10:39:36.111Z,24.60
2022-08-22T10:40:34.977Z,24.49
2022-08-22T10:41:34.998Z,24.45
2022-08-22T10:42:35.811Z,24.44
2022-08-22T10:43:35.298Z,24.36
2022-08-22T10:44:34.919Z,24.29
2022-08-22T10:45:36.564Z,24.33
2022-08-22T10:46:34.907Z,24.37
2022-08-22T10:47:35.018Z,24.42
2022-08-22T10:48:35.085Z,24.44
2022-08-22T10:49:34.867Z,24.48
2022-08-22T10:50:34.847Z,24.51
2022-08-22T10:51:34.994Z,24.49
2022-08-22T10:52:35.269Z,24.48
2022-08-22T10:53:35.187Z,24.42
2022-08-22T10:54:34.818Z,24.33
2022-08-22T10:55:34.797Z,24.41
2022-08-22T10:56:34.778Z,24.42
2022-08-22T10:57:34.765Z,24.48
2022-08-22T10:58:34.786Z,24.53
2022-08-22T10:59:34.785Z,24.56
2022-08-22T11:00:34.813Z,24.52
2022-08-22T11:01:41.012Z,24.44
2022-08-22T11:02:35.851Z,24.42
2022-08-22T11:03:34.698Z,24.41
2022-08-22T11:04:34.658Z,24.48
2022-08-22T11:05:34.712Z,24.55
2022-08-22T11:06:34.647Z,24.59
2022-08-22T11:07:34.654Z,24.60
2022-08-22T11:08:35.051Z,24.64
2022-08-22T11:09:36.984Z,24.67
2022-08-22T11:10:34.953Z,24.70
2022-08-22T11:11:34.575Z,24.68
2022-08-22T11:12:35.725Z,24.71
2022-08-22T11:13:35.345Z,24.71
2022-08-22T11:14:34.536Z,24.71
2022-08-22T11:15:35.183Z,24.77
2022-08-22T11:16:36.539Z,24.84
2022-08-22T11:17:40.611Z,24.87
2022-08-22T11:18:35.478Z,24.92
2022-08-22T11:19:34.457Z,24.93
2022-08-22T11:20:34.468Z,24.97
2022-08-22T11:21:34.449Z,25.11
2022-08-22T11:22:34.447Z,25.11
2022-08-22T11:23:34.424Z,25.09
2022-08-22T11:24:35.665Z,25.04
2022-08-22T11:25:38.562Z,25.04
2022-08-22T11:26:46.676Z,25.01
2022-08-22T11:27:38.342Z,24.99
2022-08-22T11:28:34.357Z,25.05
2022-08-22T11:29:34.340Z,25.08
2022-08-22T11:30:36.298Z,25.04
2022-08-22T11:31:36.538Z,24.87
2022-08-22T11:32:34.608Z,24.80
2022-08-22T11:33:46.168Z,24.86
2022-08-22T11:34:35.399Z,24.86
2022-08-22T11:35:34.279Z,24.87
2022-08-22T11:36:34.335Z,24.86
2022-08-22T11:37:40.333Z,24.82
2022-08-22T11:38:36.181Z,24.79
2022-08-22T11:39:34.222Z,24.84
2022-08-22T11:40:34.382Z,24.92
2022-08-22T11:41:34.315Z,24.84
2022-08-22T11:42:34.182Z,24.82
2022-08-22T11:43:34.170Z,24.74
2022-08-22T11:44:34.842Z,24.61
2022-08-22T11:45:35.150Z,24.48
2022-08-22T11:46:34.168Z,24.41
2022-08-22T11:47:34.138Z,24.41
2022-08-22T11:48:34.110Z,24.30
2022-08-22T11:49:34.110Z,24.21
2022-08-22T11:50:34.146Z,24.14
2022-08-22T11:51:34.256Z,24.16
2022-08-22T11:52:34.080Z,24.26
2022-08-22T11:53:34.068Z,24.27
2022-08-22T11:54:34.059Z,24.30
2022-08-22T11:55:34.578Z,24.34
2022-08-22T11:56:34.010Z,24.39
2022-08-22T11:57:34.029Z,24.39
2022-08-22T11:58:33.968Z,24.45
2022-08-22T11:59:33.961Z,24.55
2022-08-22T12:00:34.956Z,24.67
2022-08-22T12:01:34.449Z,24.74
2022-08-22T12:02:33.985Z,24.70
2022-08-22T12:03:33.918Z,24.68
2022-08-22T12:04:33.927Z,24.74
2022-08-22T12:05:33.941Z,24.64
2022-08-22T12:06:34.567Z,24.63
2022-08-22T12:07:33.919Z,24.61
2022-08-22T12:08:33.938Z,24.68
2022-08-22T12:09:34.008Z,24.71
2022-08-22T12:10:33.840Z,24.71
2022-08-22T12:11:33.829Z,24.60
2022-08-22T12:12:33.807Z,24.59
2022-08-22T12:13:35.215Z,24.63
2022-08-22T12:14:33.769Z,24.64
2022-08-22T12:15:33.939Z,24.63
2022-08-22T12:16:33.754Z,24.63
2022-08-22T12:17:55.916Z,24.60
2022-08-22T12:18:34.716Z,24.60
2022-08-22T12:19:33.710Z,24.59
2022-08-22T12:20:33.772Z,24.61
2022-08-22T12:21:33.676Z,24.52
2022-08-22T12:22:33.683Z,24.53
2022-08-22T12:23:48.525Z,24.59
2022-08-22T12:24:34.653Z,24.67
2022-08-22T12:25:33.824Z,24.74
2022-08-22T12:26:36.012Z,24.84
2022-08-22T12:27:33.651Z,24.86
2022-08-22T12:28:33.631Z,24.75
2022-08-22T12:29:44.724Z,24.53
2022-08-22T12:30:34.688Z,24.52
2022-08-22T12:31:33.558Z,24.61
2022-08-22T12:32:34.086Z,24.71
2022-08-22T12:33:33.568Z,24.75
2022-08-22T12:34:33.489Z,24.83
2022-08-22T12:35:33.546Z,24.86
2022-08-22T12:36:33.487Z,24.82
2022-08-22T12:37:35.692Z,24.74
2022-08-22T12:38:37.878Z,24.71
2022-08-22T12:39:34.170Z,24.71
2022-08-22T12:40:33.526Z,24.75
2022-08-22T12:41:35.168Z,24.84
2022-08-22T12:42:33.399Z,24.87
2022-08-22T12:43:33.407Z,24.89
2022-08-22T12:44:34.621Z,24.90
2022-08-22T12:45:33.380Z,25.01
2022-08-22T12:46:33.359Z,25.12
2022-08-22T12:47:34.447Z,25.12
2022-08-22T12:48:33.489Z,25.19